createdAt,value
2018-05-08T00:00:52.089Z,4.13
2018-05-08T00:03:19.702Z,3.90
2018-05-08T00:05:47.299Z,4.43
2018-05-08T00:08:14.860Z,3.87
2018-05-08T00:10:42.495Z,5.97
2018-05-08T00:13:10.088Z,4.40
2018-05-08T00:15:37.706Z,4.80
2018-05-08T00:18:05.267Z,4.00
2018-05-08T00:20:32.886Z,4.97
2018-05-08T00:23:00.448Z,4.17
2018-05-08T00:25:28.075Z,4.70
2018-05-08T00:27:55.662Z,4.83
2018-05-08T00:30:24.014Z,5.10
2018-05-08T00:32:51.608Z,3.97
2018-05-08T00:35:19.195Z,4.60
2018-05-08T00:37:47.546Z,5.00
2018-05-08T00:40:15.131Z,4.33
2018-05-08T00:42:43.479Z,5.20
2018-05-08T00:45:11.066Z,4.63
2018-05-08T00:47:39.423Z,6.00
2018-05-08T00:50:07.022Z,4.43
2018-05-08T00:52:34.578Z,3.80
2018-05-08T00:55:04.714Z,4.43
2018-05-08T00:57:32.322Z,4.70
2018-05-08T00:59:59.902Z,5.20
2018-05-08T01:02:27.486Z,4.17
2018-05-08T01:04:55.143Z,4.77
2018-05-08T01:07:22.690Z,5.47
2018-05-08T01:09:51.062Z,5.10
2018-05-08T01:12:18.623Z,3.67
2018-05-08T01:14:46.202Z,4.40
2018-05-08T01:17:13.782Z,4.63
2018-05-08T01:19:41.371Z,4.37
2018-05-08T01:22:08.926Z,4.17
2018-05-08T01:24:36.490Z,4.03
2018-05-08T01:27:04.090Z,3.87
2018-05-08T01:29:31.714Z,4.53
2018-05-08T01:31:59.328Z,4.70
2018-05-08T01:34:26.912Z,4.43
2018-05-08T01:36:54.522Z,3.37
2018-05-08T01:39:22.078Z,4.20
2018-05-08T01:41:50.455Z,5.07
2018-05-08T01:44:18.806Z,3.50
2018-05-08T01:46:46.386Z,4.93
2018-05-08T01:49:14.762Z,3.43
2018-05-08T01:51:43.110Z,4.43
2018-05-08T01:54:10.714Z,4.17
2018-05-08T01:56:39.063Z,4.40
2018-05-08T01:59:06.649Z,4.20
2018-05-08T02:01:34.996Z,3.73
2018-05-08T02:04:02.578Z,3.93
2018-05-08T02:06:30.923Z,6.27
2018-05-08T02:08:58.536Z,3.30
2018-05-08T02:11:26.882Z,5.00
2018-05-08T02:13:54.442Z,3.37
2018-05-08T02:16:22.049Z,3.70
2018-05-08T02:18:49.638Z,3.73
2018-05-08T02:21:17.221Z,2.80
2018-05-08T02:23:44.827Z,3.50
2018-05-08T02:26:12.438Z,2.77
2018-05-08T02:28:40.007Z,2.47
2018-05-08T02:31:07.619Z,3.30
2018-05-08T02:33:35.175Z,2.90
2018-05-08T02:36:02.786Z,3.00
2018-05-08T02:38:30.402Z,3.57
2018-05-08T02:40:57.990Z,3.10
2018-05-08T02:43:25.602Z,3.10
2018-05-08T02:45:53.202Z,4.50
2018-05-08T02:48:20.826Z,3.43
2018-05-08T02:50:49.178Z,3.67
2018-05-08T02:53:16.772Z,3.20
2018-05-08T02:55:44.363Z,3.53
2018-05-08T02:58:12.007Z,3.10
2018-05-08T03:00:39.596Z,3.37
2018-05-08T03:03:07.205Z,3.37
2018-05-08T03:05:34.791Z,2.90
2018-05-08T03:08:02.415Z,3.37
2018-05-08T03:10:29.994Z,2.63
2018-05-08T03:12:57.549Z,2.97
2018-05-08T03:15:25.130Z,3.53
2018-05-08T03:17:53.509Z,3.03
2018-05-08T03:20:21.835Z,3.70
2018-05-08T03:22:49.461Z,3.30
2018-05-08T03:25:17.047Z,3.27
2018-05-08T03:27:45.374Z,3.30
2018-05-08T03:30:12.981Z,3.07
2018-05-08T03:32:41.344Z,3.30
2018-05-08T03:35:08.942Z,5.27
2018-05-08T03:37:36.500Z,3.33
2018-05-08T03:40:04.130Z,5.63
2018-05-08T03:42:32.478Z,3.33
2018-05-08T03:45:00.212Z,3.03
2018-05-08T03:47:27.797Z,3.43
2018-05-08T03:49:55.391Z,4.07
2018-05-08T03:52:23.746Z,4.37
2018-05-08T03:54:51.330Z,3.50
2018-05-08T03:57:18.971Z,5.10
2018-05-08T03:59:46.506Z,4.13
2018-05-08T04:02:25.940Z,3.43
2018-05-08T04:05:05.507Z,3.60
2018-05-08T04:07:44.898Z,4.33
2018-05-08T04:10:12.455Z,4.03
2018-05-08T04:12:40.062Z,3.83
2018-05-08T04:15:08.547Z,3.93
2018-05-08T04:17:36.161Z,3.20
2018-05-08T04:20:03.802Z,3.70
2018-05-08T04:22:32.154Z,3.63
2018-05-08T04:24:59.893Z,4.23
2018-05-08T04:27:27.454Z,3.20
2018-05-08T04:29:55.062Z,6.80
2018-05-08T04:32:23.539Z,4.67
2018-05-08T04:34:51.121Z,4.57
2018-05-08T04:37:19.478Z,3.40
2018-05-08T04:39:47.066Z,3.40
2018-05-08T04:42:15.382Z,3.63
2018-05-08T04:44:42.940Z,3.03
2018-05-08T04:47:10.534Z,3.60
2018-05-08T04:49:38.120Z,3.50
2018-05-08T04:52:06.540Z,6.07
2018-05-08T04:54:34.132Z,3.57
2018-05-08T04:57:01.751Z,3.67
2018-05-08T04:59:29.334Z,3.43
2018-05-08T05:01:56.948Z,3.70
2018-05-08T05:04:25.278Z,4.23
2018-05-08T05:06:53.893Z,3.97
2018-05-08T05:09:21.483Z,4.20
2018-05-08T05:11:49.089Z,3.87
2018-05-08T05:14:16.671Z,5.20
2018-05-08T05:16:44.341Z,3.90
2018-05-08T05:19:11.896Z,3.80
2018-05-08T05:21:39.459Z,4.20
2018-05-08T05:24:07.078Z,4.17
2018-05-08T05:26:34.657Z,3.57
2018-05-08T05:29:02.266Z,4.30
2018-05-08T05:31:29.944Z,4.57
2018-05-08T05:33:57.566Z,4.00
2018-05-08T05:36:25.157Z,5.23
2018-05-08T05:38:52.783Z,5.97
2018-05-08T05:41:20.954Z,3.50
2018-05-08T05:43:48.527Z,3.33
2018-05-08T05:46:16.090Z,3.10
2018-05-08T05:48:43.702Z,3.00
2018-05-08T05:51:12.091Z,3.20
2018-05-08T05:53:40.443Z,3.33
2018-05-08T05:56:08.001Z,3.80
2018-05-08T05:58:35.586Z,3.20
2018-05-08T06:01:03.923Z,3.00
2018-05-08T06:03:31.546Z,3.83
2018-05-08T06:05:59.106Z,3.83
2018-05-08T06:08:26.849Z,3.33
2018-05-08T06:10:54.464Z,4.00
2018-05-08T06:13:22.037Z,4.90
2018-05-08T06:15:49.650Z,4.13
2018-05-08T06:18:17.235Z,3.53
2018-05-08T06:20:44.892Z,3.33
2018-05-08T06:23:12.496Z,4.13
2018-05-08T06:25:40.132Z,3.37
2018-05-08T06:28:07.699Z,3.40
2018-05-08T06:30:35.305Z,3.50
2018-05-08T06:33:03.658Z,11.10
2018-05-08T06:35:31.329Z,3.50
2018-05-08T06:37:58.923Z,4.67
2018-05-08T06:40:26.515Z,3.33
2018-05-08T06:42:54.122Z,3.13
2018-05-08T06:45:21.706Z,2.77
2018-05-08T06:47:49.301Z,3.20
2018-05-08T06:50:17.731Z,3.00
2018-05-08T06:52:46.190Z,4.50
2018-05-08T06:55:13.758Z,3.33
2018-05-08T06:57:41.370Z,4.43
2018-05-08T07:00:09.717Z,2.80
2018-05-08T07:02:38.362Z,3.50
2018-05-08T07:05:05.963Z,3.60
2018-05-08T07:07:34.311Z,4.43
2018-05-08T07:10:01.904Z,3.27
2018-05-08T07:12:30.279Z,3.20
2018-05-08T07:14:58.604Z,3.33
2018-05-08T07:17:26.207Z,3.20
2018-05-08T07:19:53.770Z,3.50
2018-05-08T07:22:22.146Z,8.47
2018-05-08T07:24:49.782Z,3.00
2018-05-08T07:27:17.439Z,3.20
2018-05-08T07:29:45.028Z,4.87
2018-05-08T07:32:12.626Z,2.60
2018-05-08T07:34:40.220Z,2.50
2018-05-08T07:37:08.711Z,2.80
2018-05-08T07:39:37.050Z,2.60
2018-05-08T07:42:04.654Z,3.93
2018-05-08T07:44:32.210Z,2.50
2018-05-08T07:47:00.548Z,2.50
2018-05-08T07:49:28.131Z,2.50
2018-05-08T07:51:56.490Z,2.60
2018-05-08T07:54:24.080Z,2.33
2018-05-08T07:56:52.430Z,2.20
2018-05-08T07:59:19.997Z,2.30
2018-05-08T08:01:47.610Z,2.90
2018-05-08T08:04:15.221Z,2.70
2018-05-08T08:06:42.834Z,3.17
2018-05-08T08:09:10.394Z,2.60
2018-05-08T08:11:37.986Z,4.57
2018-05-08T08:14:05.585Z,3.00
2018-05-08T08:16:33.206Z,3.10
2018-05-08T08:19:00.790Z,2.20
2018-05-08T08:21:28.379Z,2.87
2018-05-08T08:23:56.082Z,2.20
2018-05-08T08:26:23.578Z,4.00
2018-05-08T08:28:51.163Z,2.23
2018-05-08T08:31:18.732Z,2.60
2018-05-08T08:33:46.318Z,4.80
2018-05-08T08:36:13.918Z,2.53
2018-05-08T08:38:41.503Z,2.83
2018-05-08T08:41:09.121Z,3.87
2018-05-08T08:43:37.441Z,2.10
2018-05-08T08:46:05.028Z,6.60
2018-05-08T08:48:32.618Z,2.10
2018-05-08T08:51:00.207Z,2.70
2018-05-08T08:53:27.791Z,1.83
2018-05-08T08:55:55.457Z,1.90
2018-05-08T08:58:22.996Z,2.27
2018-05-08T09:00:50.589Z,1.40
2018-05-08T09:03:18.942Z,1.97
2018-05-08T09:05:46.550Z,1.60
2018-05-08T09:08:14.139Z,1.87
2018-05-08T09:10:41.739Z,1.77
2018-05-08T09:13:09.310Z,2.10
2018-05-08T09:15:36.935Z,1.80
2018-05-08T09:18:04.522Z,1.90
2018-05-08T09:20:32.118Z,2.30
2018-05-08T09:22:59.674Z,1.93
2018-05-08T09:25:27.248Z,1.40
2018-05-08T09:27:54.866Z,1.60
2018-05-08T09:30:22.483Z,2.20
2018-05-08T09:32:50.848Z,2.03
2018-05-08T09:35:19.234Z,3.07
2018-05-08T09:37:47.602Z,2.17
2018-05-08T09:40:15.954Z,1.40
2018-05-08T09:42:43.558Z,1.53
2018-05-08T09:45:11.146Z,1.70
2018-05-08T09:47:38.738Z,2.03
2018-05-08T09:50:06.374Z,1.83
2018-05-08T09:52:33.938Z,1.80
2018-05-08T09:55:01.498Z,1.63
2018-05-08T09:57:29.093Z,2.20
2018-05-08T09:59:56.697Z,1.60
2018-05-08T10:02:24.287Z,2.43
2018-05-08T10:04:51.901Z,2.10
2018-05-08T10:07:19.490Z,2.23
2018-05-08T10:09:47.076Z,4.53
2018-05-08T10:12:15.454Z,1.60
2018-05-08T10:14:43.859Z,3.40
2018-05-08T10:17:11.468Z,2.13
2018-05-08T10:19:39.037Z,2.13
2018-05-08T10:22:06.627Z,1.73
2018-05-08T10:24:35.002Z,2.10
2018-05-08T10:27:03.331Z,1.20
2018-05-08T10:29:30.946Z,2.63
2018-05-08T10:31:59.297Z,2.30
2018-05-08T10:34:26.919Z,1.77
2018-05-08T10:36:54.490Z,2.20
2018-05-08T10:39:22.103Z,2.73
2018-05-08T10:41:49.658Z,1.50
2018-05-08T10:44:17.274Z,2.77
2018-05-08T10:46:44.832Z,1.60
2018-05-08T10:49:12.396Z,1.50
2018-05-08T10:51:40.021Z,2.00
2018-05-08T10:54:08.346Z,1.40
2018-05-08T10:56:35.962Z,2.70
2018-05-08T10:59:04.323Z,1.80
2018-05-08T11:01:31.886Z,2.77
2018-05-08T11:04:00.246Z,2.17
2018-05-08T11:06:27.809Z,1.47
2018-05-08T11:08:55.433Z,2.80
2018-05-08T11:11:22.996Z,1.60
2018-05-08T11:13:50.606Z,2.37
2018-05-08T11:16:18.189Z,2.60
2018-05-08T11:18:46.547Z,1.90
2018-05-08T11:21:14.163Z,1.77
2018-05-08T11:23:41.736Z,2.13
2018-05-08T11:26:09.347Z,1.50
2018-05-08T11:28:36.959Z,2.00
2018-05-08T11:31:04.581Z,5.00
2018-05-08T11:33:32.176Z,3.13
2018-05-08T11:35:59.785Z,2.50
2018-05-08T11:38:27.365Z,1.40
2018-05-08T11:40:54.980Z,1.47
2018-05-08T11:43:22.593Z,1.43
2018-05-08T11:45:50.179Z,1.93
2018-05-08T11:48:17.767Z,1.40
2018-05-08T11:50:46.118Z,1.40
2018-05-08T11:53:13.710Z,1.80
2018-05-08T11:55:42.041Z,1.70
2018-05-08T11:58:09.654Z,2.27
2018-05-08T12:00:38.090Z,2.93
2018-05-08T12:03:05.692Z,1.33
2018-05-08T12:05:34.097Z,2.03
2018-05-08T12:08:01.671Z,1.80
2018-05-08T12:10:29.262Z,2.03
2018-05-08T12:12:56.856Z,1.50
2018-05-08T12:15:25.242Z,1.10
2018-05-08T12:17:52.826Z,1.40
2018-05-08T12:20:20.411Z,1.23
2018-05-08T12:22:48.022Z,1.77
2018-05-08T12:25:16.478Z,1.97
2018-05-08T12:27:44.151Z,0.90
2018-05-08T12:30:12.515Z,1.20
2018-05-08T12:32:40.082Z,1.93
2018-05-08T12:35:07.714Z,0.90
2018-05-08T12:37:35.305Z,0.80
2018-05-08T12:40:02.935Z,1.17
2018-05-08T12:42:30.566Z,1.50
2018-05-08T12:44:58.131Z,1.63
2018-05-08T12:47:25.713Z,1.50
2018-05-08T12:49:53.315Z,1.30
2018-05-08T12:52:21.685Z,1.27
2018-05-08T12:54:49.266Z,2.53
2018-05-08T12:57:17.590Z,1.27
2018-05-08T12:59:45.178Z,2.50
2018-05-08T13:02:12.792Z,1.37
2018-05-08T13:04:40.355Z,1.40
2018-05-08T13:07:07.967Z,1.23
2018-05-08T13:09:35.556Z,1.07
2018-05-08T13:12:03.931Z,1.20
2018-05-08T13:14:32.278Z,1.67
2018-05-08T13:16:59.867Z,1.93
2018-05-08T13:19:28.199Z,1.20
2018-05-08T13:21:55.807Z,1.20
2018-05-08T13:24:24.130Z,3.43
2018-05-08T13:26:51.714Z,1.53
2018-05-08T13:29:19.347Z,1.10
2018-05-08T13:31:46.906Z,2.60
2018-05-08T13:34:14.519Z,1.73
2018-05-08T13:36:42.146Z,1.80
2018-05-08T13:39:09.723Z,1.80
2018-05-08T13:41:37.311Z,0.97
2018-05-08T13:44:04.923Z,1.17
2018-05-08T13:46:32.551Z,1.20
2018-05-08T13:49:00.135Z,2.37
2018-05-08T13:51:27.722Z,2.10
2018-05-08T13:53:56.075Z,1.73
2018-05-08T13:56:24.427Z,1.60
2018-05-08T13:58:52.070Z,1.67
2018-05-08T14:01:19.666Z,1.20
2018-05-08T14:03:47.306Z,1.10
2018-05-08T14:06:14.867Z,1.20
2018-05-08T14:08:42.433Z,1.30
2018-05-08T14:11:10.046Z,1.30
2018-05-08T14:13:37.607Z,1.33
2018-05-08T14:16:05.170Z,1.70
2018-05-08T14:18:32.767Z,1.50
2018-05-08T14:21:00.326Z,1.30
2018-05-08T14:23:27.944Z,1.60
2018-05-08T14:25:55.622Z,1.60
2018-05-08T14:28:23.160Z,1.07
2018-05-08T14:30:50.745Z,2.10
2018-05-08T14:33:18.334Z,1.93
2018-05-08T14:35:45.926Z,1.30
2018-05-08T14:38:13.537Z,2.17
2018-05-08T14:40:41.903Z,1.53
2018-05-08T14:43:10.262Z,1.90
2018-05-08T14:45:37.979Z,3.10
2018-05-08T14:48:05.553Z,1.07
2018-05-08T14:50:33.163Z,1.17
2018-05-08T14:53:00.754Z,2.57
2018-05-08T14:55:28.315Z,1.00
2018-05-08T14:57:56.382Z,1.70
2018-05-08T15:00:24.049Z,1.40
2018-05-08T15:02:51.639Z,1.40
2018-05-08T15:05:19.199Z,1.70
2018-05-08T15:07:46.786Z,1.30
2018-05-08T15:10:14.346Z,1.20
2018-05-08T15:12:41.957Z,1.33
2018-05-08T15:15:09.551Z,1.70
2018-05-08T15:17:37.147Z,1.67
2018-05-08T15:20:04.745Z,1.40
2018-05-08T15:22:32.342Z,1.70
2018-05-08T15:24:59.942Z,1.37
2018-05-08T15:27:27.536Z,1.63
2018-05-08T15:29:55.123Z,2.07
2018-05-08T15:32:22.714Z,1.50
2018-05-08T15:34:50.303Z,1.10
2018-05-08T15:37:17.894Z,1.80
2018-05-08T15:39:45.475Z,2.00
2018-05-08T15:42:13.066Z,0.90
2018-05-08T15:44:41.414Z,2.63
2018-05-08T15:47:09.006Z,1.80
2018-05-08T15:49:37.392Z,1.20
2018-05-08T15:52:05.750Z,1.73
2018-05-08T15:54:33.351Z,1.10
2018-05-08T15:57:00.962Z,1.47
2018-05-08T15:59:28.519Z,2.40
2018-05-08T16:01:56.143Z,2.97
2018-05-08T16:04:23.709Z,1.33
2018-05-08T16:06:51.304Z,1.50
2018-05-08T16:09:18.898Z,1.57
2018-05-08T16:11:47.246Z,1.70
2018-05-08T16:14:14.811Z,1.43
2018-05-08T16:16:42.399Z,1.47
2018-05-08T16:19:10.759Z,2.80
2018-05-08T16:21:38.347Z,5.23
2018-05-08T16:24:05.957Z,2.87
2018-05-08T16:26:33.533Z,2.13
2018-05-08T16:29:01.168Z,1.83
2018-05-08T16:31:28.743Z,1.57
2018-05-08T16:33:56.335Z,1.47
2018-05-08T16:36:24.688Z,2.67
2018-05-08T16:38:52.297Z,1.80
2018-05-08T16:41:19.865Z,1.40
2018-05-08T16:43:47.478Z,1.50
2018-05-08T16:46:15.071Z,1.43
2018-05-08T16:48:42.694Z,1.50
2018-05-08T16:51:10.261Z,1.37
2018-05-08T16:53:37.883Z,2.37
2018-05-08T16:56:05.465Z,4.00
2018-05-08T16:58:33.134Z,1.30
2018-05-08T17:01:00.909Z,1.20
2018-05-08T17:03:28.514Z,1.37
2018-05-08T17:05:56.098Z,2.77
2018-05-08T17:08:23.701Z,1.87
2018-05-08T17:10:51.290Z,1.40
2018-05-08T17:13:19.667Z,1.17
2018-05-08T17:15:48.042Z,1.43
2018-05-08T17:18:16.379Z,1.30
2018-05-08T17:20:43.964Z,1.40
2018-05-08T17:23:12.350Z,1.70
2018-05-08T17:25:40.782Z,1.67
2018-05-08T17:28:08.347Z,1.70
2018-05-08T17:30:35.906Z,1.67
2018-05-08T17:33:03.491Z,1.77
2018-05-08T17:35:31.097Z,1.87
2018-05-08T17:37:58.691Z,1.60
2018-05-08T17:40:26.276Z,1.70
2018-05-08T17:42:53.860Z,2.00
2018-05-08T17:45:22.259Z,1.73
2018-05-08T17:47:49.832Z,2.70
2018-05-08T17:50:17.429Z,2.57
2018-05-08T17:52:45.038Z,1.43
2018-05-08T17:55:13.359Z,1.63
2018-05-08T17:57:40.978Z,1.80
2018-05-08T18:00:09.335Z,2.23
2018-05-08T18:02:36.922Z,1.70
2018-05-08T18:05:04.673Z,1.70
2018-05-08T18:07:32.284Z,2.33
2018-05-08T18:10:00.634Z,1.93
2018-05-08T18:12:28.251Z,2.10
2018-05-08T18:14:55.900Z,2.07
2018-05-08T18:17:23.592Z,4.43
2018-05-08T18:19:51.140Z,2.53
2018-05-08T18:22:18.728Z,2.47
2018-05-08T18:24:47.107Z,2.37
2018-05-08T18:27:15.434Z,1.90
2018-05-08T18:29:43.034Z,1.67
2018-05-08T18:32:10.655Z,2.17
2018-05-08T18:34:38.251Z,2.13
2018-05-08T18:37:05.842Z,2.10
2018-05-08T18:39:33.407Z,2.10
2018-05-08T18:42:01.760Z,1.50
2018-05-08T18:44:30.087Z,1.93
2018-05-08T18:46:57.647Z,2.50
2018-05-08T18:49:25.335Z,2.03
2018-05-08T18:51:53.581Z,3.23
2018-05-08T18:54:21.167Z,2.20
2018-05-08T18:56:48.723Z,1.90
2018-05-08T18:59:16.335Z,2.80
2018-05-08T19:01:43.895Z,3.67
2018-05-08T19:04:11.480Z,2.40
2018-05-08T19:06:39.092Z,2.97
2018-05-08T19:09:06.690Z,1.97
2018-05-08T19:11:40.747Z,2.40
2018-05-08T19:14:08.343Z,2.20
2018-05-08T19:16:35.994Z,4.40
2018-05-08T19:19:09.372Z,3.00
2018-05-08T19:21:37.729Z,2.67
2018-05-08T19:24:10.890Z,2.93
2018-05-08T19:26:38.513Z,2.87
2018-05-08T19:29:11.653Z,2.43
2018-05-08T19:31:40.035Z,3.47
2018-05-08T19:34:07.601Z,2.77
2018-05-08T19:36:40.884Z,3.27
2018-05-08T19:39:08.555Z,2.40
2018-05-08T19:41:36.886Z,2.53
2018-05-08T19:44:04.503Z,2.90
2018-05-08T19:46:32.142Z,2.70
2018-05-08T19:49:00.467Z,3.00
2018-05-08T19:51:28.023Z,2.87
2018-05-08T19:53:55.634Z,2.87
2018-05-08T19:56:27.698Z,3.97
2018-05-08T19:58:55.327Z,2.93
2018-05-08T20:01:22.913Z,3.40
2018-05-08T20:03:51.269Z,4.63
2018-05-08T20:06:18.882Z,2.53
2018-05-08T20:08:46.545Z,3.30
2018-05-08T20:11:14.096Z,3.70
2018-05-08T20:13:41.684Z,5.97
2018-05-08T20:16:10.075Z,3.23
2018-05-08T20:18:38.401Z,3.60
2018-05-08T20:21:06.000Z,3.07
2018-05-08T20:23:33.652Z,3.43
2018-05-08T20:26:01.248Z,3.60
2018-05-08T20:28:28.810Z,3.73
2018-05-08T20:30:56.399Z,3.87
2018-05-08T20:33:38.373Z,3.63
2018-05-08T20:36:06.078Z,4.50
2018-05-08T20:38:33.590Z,5.17
2018-05-08T20:41:01.178Z,5.10
2018-05-08T20:43:29.627Z,4.87
2018-05-08T20:45:57.186Z,5.50
2018-05-08T20:48:24.794Z,4.63
2018-05-08T20:50:53.142Z,8.10
2018-05-08T20:53:20.771Z,3.47
2018-05-08T20:55:51.527Z,4.57
2018-05-08T20:58:19.407Z,4.10
2018-05-08T21:00:47.002Z,3.93
2018-05-08T21:03:15.339Z,3.93
2018-05-08T21:05:42.959Z,4.10
2018-05-08T21:08:10.555Z,3.60
2018-05-08T21:10:38.171Z,4.87
2018-05-08T21:13:05.735Z,3.00
2018-05-08T21:15:33.347Z,7.20
2018-05-08T21:18:00.995Z,3.23
2018-05-08T21:20:29.295Z,3.90
2018-05-08T21:22:56.883Z,3.10
2018-05-08T21:25:25.239Z,3.43
2018-05-08T21:27:58.541Z,3.37
2018-05-08T21:30:31.789Z,3.53
2018-05-08T21:32:59.376Z,3.30
2018-05-08T21:35:27.753Z,3.63
2018-05-08T21:37:56.146Z,3.60
2018-05-08T21:40:24.478Z,4.40
2018-05-08T21:42:52.041Z,6.43
2018-05-08T21:45:19.630Z,3.53
2018-05-08T21:47:47.984Z,3.23
2018-05-08T21:50:15.549Z,4.17
2018-05-08T21:52:43.158Z,3.80
2018-05-08T21:55:10.719Z,4.10
2018-05-08T21:57:38.302Z,3.40
2018-05-08T22:00:05.890Z,4.87
2018-05-08T22:02:33.474Z,4.23
2018-05-08T22:05:01.839Z,5.20
2018-05-08T22:07:29.398Z,4.40
2018-05-08T22:09:56.954Z,3.93
2018-05-08T22:12:24.573Z,3.97
2018-05-08T22:14:52.143Z,3.80
2018-05-08T22:17:19.735Z,4.50
2018-05-08T22:19:47.317Z,4.27
2018-05-08T22:22:15.667Z,3.97
2018-05-08T22:24:43.226Z,3.80
2018-05-08T22:27:10.835Z,3.93
2018-05-08T22:29:38.481Z,6.13
2018-05-08T22:32:06.039Z,5.27
2018-05-08T22:34:34.399Z,4.17
2018-05-08T22:37:01.992Z,5.77
2018-05-08T22:39:30.399Z,4.90
2018-05-08T22:41:57.982Z,4.53
2018-05-08T22:44:25.570Z,4.67
2018-05-08T22:46:53.150Z,5.93
2018-05-08T22:49:20.759Z,4.40
2018-05-08T22:51:49.110Z,4.93
2018-05-08T22:54:16.695Z,4.70
2018-05-08T22:56:45.046Z,4.53
2018-05-08T22:59:12.634Z,4.17
2018-05-08T23:01:40.987Z,4.50
2018-05-08T23:04:08.598Z,4.50
2018-05-08T23:06:36.224Z,4.50
2018-05-08T23:09:03.798Z,4.97
2018-05-08T23:11:32.146Z,4.93
2018-05-08T23:13:59.782Z,4.87
2018-05-08T23:16:27.340Z,4.80
2018-05-08T23:18:54.960Z,5.23
2018-05-08T23:21:23.307Z,4.50
2018-05-08T23:23:50.915Z,4.90
2018-05-08T23:26:18.508Z,5.90
2018-05-08T23:28:46.062Z,7.03
2018-05-08T23:31:13.647Z,5.90
2018-05-08T23:33:41.258Z,5.00
2018-05-08T23:36:08.866Z,5.83
2018-05-08T23:38:36.461Z,5.87
2018-05-08T23:41:04.079Z,5.73
2018-05-08T23:43:31.634Z,5.10
2018-05-08T23:45:59.247Z,5.70
2018-05-08T23:48:27.605Z,5.50
2018-05-08T23:50:55.186Z,5.27
2018-05-08T23:53:22.741Z,4.97
2018-05-08T23:55:50.352Z,5.20
2018-05-08T23:58:25.005Z,5.47
